createdAt,value
2022-09-12T10:33:57.577Z,86.30
2022-09-12T10:36:25.682Z,49.70
2022-09-12T10:38:56.593Z,52.40
2022-09-12T10:41:24.479Z,49.00
2022-09-12T10:43:52.527Z,61.70
2022-09-12T10:46:30.653Z,66.10
2022-09-12T10:51:42.999Z,48.90
2022-09-12T10:56:43.932Z,48.80
2022-09-12T11:01:49.334Z,48.90
2022-09-12T11:04:24.980Z,49.60
2022-09-12T11:07:13.597Z,49.70
2022-09-12T11:09:44.730Z,49.90
2022-09-12T11:12:16.270Z,50.00
2022-09-12T11:14:57.471Z,50.70
2022-09-12T11:17:30.152Z,50.10
2022-09-12T11:20:41.098Z,50.00
2022-09-12T11:23:24.828Z,50.10
2022-09-12T11:28:36.363Z,49.80
2022-09-12T11:31:18.114Z,50.30
2022-09-12T11:36:24.219Z,49.10
2022-09-12T11:39:03.231Z,49.60
2022-09-12T11:41:33.833Z,49.60
2022-09-12T11:44:04.523Z,49.60
2022-09-12T11:46:34.831Z,49.60
2022-09-12T11:49:05.904Z,49.70
2022-09-12T11:51:35.743Z,49.80
2022-09-12T11:54:06.915Z,49.90
2022-09-12T11:56:36.721Z,50.00
2022-09-12T11:59:05.830Z,50.10
2022-09-12T12:01:41.289Z,50.10
2022-09-12T12:04:13.118Z,50.00
2022-09-12T12:06:48.260Z,50.00
2022-09-12T12:09:16.224Z,50.00
2022-09-12T12:11:48.730Z,50.00
2022-09-12T12:14:18.245Z,49.90
2022-09-12T12:16:46.166Z,50.00
2022-09-12T12:19:29.827Z,50.00
2022-09-12T12:21:57.733Z,50.00
2022-09-12T12:24:26.124Z,50.00
2022-09-12T12:27:00.191Z,50.10
2022-09-12T12:29:44.053Z,50.20
2022-09-12T12:32:25.974Z,50.50
2022-09-12T12:35:03.486Z,50.90
2022-09-12T12:37:52.139Z,51.60
2022-09-12T12:40:25.948Z,53.60
2022-09-12T12:43:32.082Z,54.50
2022-09-12T12:46:06.750Z,54.50
2022-09-12T12:48:50.715Z,54.40
2022-09-12T12:51:38.703Z,54.30
2022-09-12T12:54:12.798Z,54.50
2022-09-12T12:56:41.466Z,54.80
2022-09-12T12:59:18.817Z,55.00
2022-09-12T13:01:54.217Z,55.20
2022-09-12T13:04:24.009Z,55.60
2022-09-12T13:06:58.255Z,55.80
2022-09-12T13:09:28.192Z,55.50
2022-09-12T13:11:58.850Z,55.60
2022-09-12T13:14:38.824Z,55.60
2022-09-12T13:17:08.221Z,55.50
2022-09-12T13:19:37.888Z,55.60
2022-09-12T13:22:06.610Z,55.20
2022-09-12T13:24:34.688Z,54.90
2022-09-12T13:27:03.154Z,54.80
2022-09-12T13:29:31.386Z,55.30
2022-09-12T13:32:00.539Z,54.60
2022-09-12T13:34:31.372Z,54.60
2022-09-12T13:37:16.959Z,54.60
2022-09-12T13:39:48.397Z,54.50
2022-09-12T13:42:43.693Z,54.60
2022-09-12T13:45:14.490Z,54.60
2022-09-12T13:47:44.127Z,54.80
2022-09-12T13:50:18.787Z,54.80
2022-09-12T13:52:49.184Z,54.90
2022-09-12T13:55:25.114Z,55.10
2022-09-12T13:57:58.132Z,55.20
2022-09-12T14:00:26.235Z,55.30
2022-09-12T14:03:14.188Z,55.50
2022-09-12T14:05:44.615Z,55.40
2022-09-12T14:08:14.430Z,55.60
2022-09-12T14:10:43.693Z,55.80
2022-09-12T14:13:12.978Z,55.90
2022-09-12T14:15:40.949Z,56.10
2022-09-12T14:18:09.355Z,56.30
2022-09-12T14:20:37.845Z,56.40
2022-09-12T14:23:08.781Z,56.60
2022-09-12T14:25:39.129Z,56.60
2022-09-12T14:28:07.054Z,56.70
2022-09-12T14:30:36.139Z,57.10
2022-09-12T14:33:17.986Z,57.10
2022-09-12T14:35:46.495Z,56.90
2022-09-12T14:38:22.348Z,57.90
2022-09-12T14:40:52.188Z,57.30
2022-09-12T14:43:22.306Z,57.80
2022-09-12T14:45:54.374Z,57.70
2022-09-12T14:48:22.290Z,57.50
2022-09-12T14:50:50.552Z,57.40
2022-09-12T14:53:33.579Z,57.10
2022-09-12T14:56:08.894Z,56.90
2022-09-12T14:58:37.062Z,57.10
2022-09-12T15:01:22.707Z,57.00
2022-09-12T15:03:53.380Z,57.20
2022-09-12T15:06:23.578Z,57.40
2022-09-12T15:08:53.972Z,57.70
2022-09-12T15:11:21.967Z,57.90
2022-09-12T15:13:49.890Z,58.20
2022-09-12T15:16:17.969Z,58.80
2022-09-12T15:18:45.941Z,59.30
2022-09-12T15:21:15.030Z,60.60
2022-09-12T15:23:44.126Z,62.80
2022-09-12T15:26:14.446Z,48.90
2022-09-12T15:28:42.465Z,49.50
2022-09-12T15:31:13.883Z,49.50
2022-09-12T15:33:41.825Z,49.60
2022-09-12T15:36:16.002Z,49.60
2022-09-12T15:38:44.421Z,49.60
2022-09-12T15:41:15.973Z,49.60
2022-09-12T15:43:44.056Z,49.60
2022-09-12T15:46:13.177Z,49.60
2022-09-12T15:48:41.264Z,49.60
2022-09-12T15:51:15.224Z,49.60
2022-09-12T15:53:43.837Z,49.60
2022-09-12T15:56:11.800Z,49.60
2022-09-12T15:58:57.097Z,49.60
2022-09-12T16:01:26.048Z,49.60
2022-09-12T16:03:54.200Z,49.60
2022-09-12T16:06:22.351Z,49.70
2022-09-12T16:08:50.287Z,49.70
2022-09-12T16:11:19.939Z,49.70
2022-09-12T16:13:49.686Z,49.80
2022-09-12T16:16:17.689Z,49.80
2022-09-12T16:18:45.775Z,49.80
2022-09-12T16:21:15.448Z,49.80
2022-09-12T16:23:43.968Z,49.80
2022-09-12T16:26:12.056Z,49.70
2022-09-12T16:28:40.124Z,49.80
2022-09-12T16:31:11.173Z,50.00
2022-09-12T16:33:39.765Z,49.90
2022-09-12T16:36:08.663Z,49.80
2022-09-12T16:38:41.092Z,49.80
2022-09-12T16:41:08.985Z,49.90
2022-09-12T16:43:37.051Z,49.90
2022-09-12T16:46:05.605Z,49.90
2022-09-12T16:48:34.949Z,50.00
2022-09-12T16:51:04.982Z,50.00
2022-09-12T16:53:33.397Z,50.10
2022-09-12T16:56:01.340Z,50.10
2022-09-12T16:58:29.291Z,50.20
2022-09-12T17:01:03.671Z,50.10
2022-09-12T17:03:31.644Z,50.10
2022-09-12T17:06:01.517Z,50.00
2022-09-12T17:08:29.619Z,50.60
2022-09-12T17:11:01.146Z,49.80
2022-09-12T17:13:46.639Z,49.80
2022-09-12T17:16:17.274Z,49.60
2022-09-12T17:18:45.268Z,49.50
2022-09-12T17:21:14.719Z,49.50
2022-09-12T17:23:42.816Z,49.40
2022-09-12T17:26:11.144Z,49.40
2022-09-12T17:28:39.129Z,49.40
2022-09-12T17:31:08.579Z,49.20
2022-09-12T17:33:39.670Z,49.30
2022-09-12T17:36:09.342Z,49.30
2022-09-12T17:38:39.615Z,49.30
2022-09-12T17:41:08.358Z,50.00
2022-09-12T17:43:38.028Z,49.30
2022-09-12T17:46:06.224Z,49.50
2022-09-12T17:48:34.197Z,49.50
2022-09-12T17:51:08.220Z,49.60
2022-09-12T17:53:36.174Z,49.50
2022-09-12T17:56:05.947Z,49.60
2022-09-12T17:58:33.951Z,49.50
2022-09-12T18:01:19.834Z,49.60
2022-09-12T18:03:48.187Z,49.60
2022-09-12T18:06:16.327Z,49.60
2022-09-12T18:08:44.258Z,49.60
2022-09-12T18:11:13.556Z,49.60
2022-09-12T18:13:41.523Z,50.30
2022-09-12T18:16:10.731Z,50.30
2022-09-12T18:18:38.900Z,49.60
2022-09-12T18:21:07.770Z,49.60
2022-09-12T18:23:35.823Z,49.60
2022-09-12T18:26:04.859Z,49.70
2022-09-12T18:28:34.652Z,49.80
2022-09-12T18:31:02.765Z,49.80
2022-09-12T18:33:30.718Z,49.80
2022-09-12T18:35:58.650Z,49.90
2022-09-12T18:38:26.739Z,49.90
2022-09-12T18:41:02.870Z,50.00
2022-09-12T18:43:30.857Z,50.00
2022-09-12T18:46:03.213Z,50.00
2022-09-12T18:48:32.659Z,50.10
2022-09-12T18:51:05.893Z,50.20
2022-09-12T18:53:34.158Z,50.90
2022-09-12T18:56:03.271Z,50.30
2022-09-12T18:58:31.196Z,50.30
2022-09-12T19:01:00.584Z,50.30
2022-09-12T19:03:28.546Z,50.50
2022-09-12T19:05:56.433Z,50.40
2022-09-12T19:08:24.460Z,50.50
2022-09-12T19:10:56.478Z,50.50
2022-09-12T19:13:24.658Z,50.50
2022-09-12T19:15:52.621Z,50.60
2022-09-12T19:18:21.930Z,50.60
2022-09-12T19:20:52.467Z,50.60
2022-09-12T19:23:20.549Z,50.70
2022-09-12T19:25:56.624Z,50.70
2022-09-12T19:28:24.560Z,50.80
2022-09-12T19:30:53.534Z,50.80
2022-09-12T19:33:22.978Z,50.80
2022-09-12T19:35:50.972Z,50.90
2022-09-12T19:38:19.023Z,50.90
2022-09-12T19:40:56.113Z,50.90
2022-09-12T19:43:24.270Z,50.90
2022-09-12T19:45:52.968Z,51.00
2022-09-12T19:48:22.384Z,50.90
2022-09-12T19:50:50.538Z,51.10
2022-09-12T19:53:18.592Z,51.10
2022-09-12T19:55:47.027Z,51.00
2022-09-12T19:58:14.923Z,51.10
2022-09-12T20:00:42.848Z,51.10
2022-09-12T20:03:10.886Z,51.10
2022-09-12T20:05:42.758Z,51.20
2022-09-12T20:08:11.077Z,51.20
2022-09-12T20:10:39.184Z,51.30
2022-09-12T20:13:07.181Z,51.40
2022-09-12T20:15:35.228Z,51.40
2022-09-12T20:18:03.180Z,51.50
2022-09-12T20:20:31.669Z,51.60
2022-09-12T20:23:01.154Z,51.50
2022-09-12T20:25:29.109Z,51.60
2022-09-12T20:28:00.192Z,51.70
2022-09-12T20:30:28.440Z,51.60
2022-09-12T20:32:56.365Z,51.70
2022-09-12T20:35:24.260Z,51.80
2022-09-12T20:37:52.325Z,51.90
2022-09-12T20:40:21.760Z,51.90
2022-09-12T20:42:49.888Z,52.00
2022-09-12T20:45:18.202Z,52.00
2022-09-12T20:47:46.131Z,52.10
2022-09-12T20:50:14.506Z,52.10
2022-09-12T20:52:42.470Z,52.20
2022-09-12T20:55:11.186Z,52.30
2022-09-12T20:57:40.460Z,52.40
2022-09-12T21:00:10.972Z,52.50
2022-09-12T21:02:39.099Z,52.50
2022-09-12T21:05:07.334Z,52.60
2022-09-12T21:07:35.573Z,52.60
2022-09-12T21:10:03.530Z,52.70
2022-09-12T21:12:31.503Z,52.70
2022-09-12T21:15:00.914Z,52.80
2022-09-12T21:17:28.831Z,52.70
2022-09-12T21:19:56.723Z,52.90
2022-09-12T21:22:24.755Z,53.00
2022-09-12T21:24:52.714Z,53.00
2022-09-12T21:27:20.637Z,53.00
2022-09-12T21:29:48.668Z,53.10
2022-09-12T21:32:18.041Z,53.10
2022-09-12T21:34:46.298Z,53.20
2022-09-12T21:37:14.405Z,53.30
2022-09-12T21:39:42.388Z,53.40
2022-09-12T21:42:10.335Z,53.50
2022-09-12T21:44:38.376Z,53.50
2022-09-12T21:47:06.634Z,53.70
2022-09-12T21:49:35.937Z,53.70
2022-09-12T21:52:04.320Z,53.90
2022-09-12T21:54:32.263Z,53.90
2022-09-12T21:57:00.187Z,54.00
2022-09-12T21:59:28.218Z,54.00
2022-09-12T22:01:56.219Z,54.10
2022-09-12T22:04:24.226Z,54.10
2022-09-12T22:06:53.627Z,54.20
2022-09-12T22:09:21.525Z,54.30
2022-09-12T22:11:49.844Z,54.40
2022-09-12T22:14:18.078Z,54.60
2022-09-12T22:16:45.955Z,54.60
2022-09-12T22:19:15.077Z,54.70
2022-09-12T22:22:03.020Z,54.70
2022-09-12T22:24:31.342Z,54.90
2022-09-12T22:27:00.035Z,55.00
2022-09-12T22:29:27.965Z,55.00
2022-09-12T22:31:55.894Z,55.20
2022-09-12T22:34:23.854Z,55.20
2022-09-12T22:36:51.796Z,55.40
2022-09-12T22:39:20.048Z,55.70
2022-09-12T22:41:49.336Z,55.60
2022-09-12T22:44:17.817Z,55.70
2022-09-12T22:46:46.013Z,55.80
2022-09-12T22:49:13.952Z,56.20
2022-09-12T22:51:41.911Z,56.30
2022-09-12T22:54:10.848Z,56.50
2022-09-12T22:56:39.396Z,56.70
2022-09-12T22:59:08.669Z,56.90
2022-09-12T23:01:36.651Z,57.10
2022-09-12T23:04:05.263Z,57.20
2022-09-12T23:06:33.162Z,57.50
2022-09-12T23:09:01.419Z,58.40
2022-09-12T23:11:29.344Z,57.90
2022-09-12T23:13:57.298Z,58.00
2022-09-12T23:16:31.173Z,58.20
2022-09-12T23:18:59.167Z,58.70
2022-09-12T23:21:27.033Z,59.10
2022-09-12T23:23:56.215Z,59.30
2022-09-12T23:26:24.861Z,59.60
2022-09-12T23:28:53.803Z,59.50
2022-09-12T23:31:21.883Z,59.90
2022-09-12T23:33:53.220Z,60.50
2022-09-12T23:36:21.165Z,60.90
2022-09-12T23:38:49.280Z,63.20
2022-09-12T23:41:17.674Z,63.00
2022-09-12T23:43:45.858Z,73.20
2022-09-12T23:46:13.989Z,89.50
2022-09-12T23:48:42.246Z,89.60
2022-09-12T23:51:11.639Z,84.40
2022-09-12T23:53:39.567Z,90.00
2022-09-12T23:56:07.908Z,87.70
